Time;durP1;ratioP1;P1;durP2;ratioP2;P2;SDS_P1;SDS_P2;PMS_P1;PMS_P2;Temp;Humidity;BMP_temperature;BMP_pressure;BME280_temperature;BME280_humidity;BME280_pressure;Samples;Min_cycle;Max_cycle;Signal;HPM_P1;HPM_P2
2021/12/15 00:02:02;;;;;;;3.45;2.70;;;10.40;83.70;;;;;;5158142;27;20118;-55
2021/12/15 00:04:29;;;;;;;3.97;2.92;;;10.30;83.60;;;;;;5157897;27;20042;-54
2021/12/15 00:06:54;;;;;;;2.92;2.58;;;10.30;83.60;;;;;;5156917;27;20501;-54
2021/12/15 00:09:20;;;;;;;2.60;2.30;;;10.30;83.60;;;;;;5170604;27;20050;-55
2021/12/15 00:11:46;;;;;;;2.67;2.22;;;10.40;83.60;;;;;;5164143;27;20038;-52
2021/12/15 00:14:18;;;;;;;3.00;2.58;;;10.30;83.60;;;;;;5156380;27;20050;-56
2021/12/15 00:16:45;;;;;;;3.45;2.70;;;10.40;83.60;;;;;;5156743;27;20043;-54
2021/12/15 00:19:11;;;;;;;3.03;2.47;;;10.30;83.50;;;;;;5156458;27;20546;-54
2021/12/15 00:21:38;;;;;;;3.00;2.70;;;10.40;83.60;;;;;;5156672;27;20553;-54
2021/12/15 00:24:06;;;;;;;2.85;2.30;;;10.40;83.60;;;;;;5157825;27;20390;-55
2021/12/15 00:26:32;;;;;;;2.85;2.22;;;10.30;83.60;;;;;;5156728;27;20043;-54
2021/12/15 00:28:57;;;;;;;3.70;2.58;;;10.40;83.60;;;;;;5138440;27;20195;-55
2021/12/15 00:31:24;;;;;;;3.15;2.60;;;10.30;83.50;;;;;;5156383;27;20043;-55
2021/12/15 00:33:50;;;;;;;2.65;2.22;;;10.30;83.50;;;;;;5157210;27;20035;-54
2021/12/15 00:36:15;;;;;;;3.45;2.42;;;10.40;83.60;;;;;;5156096;27;20042;-55
2021/12/15 00:38:42;;;;;;;3.38;2.40;;;10.40;83.60;;;;;;5156487;27;20110;-54
2021/12/15 00:41:09;;;;;;;3.00;2.40;;;10.40;83.60;;;;;;5156369;27;20042;-51
2021/12/15 00:43:36;;;;;;;2.88;2.58;;;10.40;83.60;;;;;;5156866;27;20126;-53
2021/12/15 00:46:02;;;;;;;2.85;2.45;;;10.40;83.60;;;;;;5155923;27;20473;-54
2021/12/15 00:48:29;;;;;;;2.95;2.63;;;10.40;83.60;;;;;;5155968;27;20551;-50
2021/12/15 00:50:55;;;;;;;2.92;2.60;;;10.40;83.60;;;;;;5156246;27;20062;-53
2021/12/15 00:53:21;;;;;;;2.70;2.50;;;10.40;83.60;;;;;;5156236;27;20107;-51
2021/12/15 00:55:47;;;;;;;3.28;2.35;;;10.40;83.60;;;;;;5157101;27;20443;-52
2021/12/15 00:58:13;;;;;;;2.53;2.30;;;10.40;83.60;;;;;;5156010;27;20054;-53
2021/12/15 01:00:44;;;;;;;2.75;2.25;;;10.40;83.50;;;;;;5155555;27;20047;-54
2021/12/15 01:03:11;;;;;;;3.15;2.50;;;10.40;83.50;;;;;;5155857;27;20035;-54
2021/12/15 01:05:40;;;;;;;2.95;2.13;;;10.40;83.50;;;;;;5156813;27;20379;-54
2021/12/15 01:08:09;;;;;;;3.72;2.47;;;10.40;83.50;;;;;;5155954;27;20423;-55
2021/12/15 01:11:17;;;;;;;2.83;2.42;;;10.40;83.60;;;;;;5165300;27;20046;-54
2021/12/15 01:21:50;;;;;;;2.80;2.50;;;10.40;83.50;;;;;;5176123;27;20039;-54
2021/12/15 01:24:16;;;;;;;2.28;2.00;;;10.40;83.50;;;;;;5176766;27;20106;-54
2021/12/15 01:26:42;;;;;;;3.13;2.00;;;10.40;83.60;;;;;;5174519;27;20401;-54
2021/12/15 01:29:08;;;;;;;2.90;2.42;;;10.40;83.50;;;;;;5176714;27;20121;-52
2021/12/15 01:31:34;;;;;;;2.65;2.20;;;10.40;83.50;;;;;;5167894;27;20133;-53
2021/12/15 01:34:00;;;;;;;3.33;2.30;;;10.40;83.50;;;;;;5155473;27;20099;-54
2021/12/15 01:36:26;;;;;;;2.13;1.88;;;10.40;83.50;;;;;;5156986;27;20049;-52
2021/12/15 01:38:51;;;;;;;2.42;2.00;;;10.40;83.50;;;;;;5155507;27;20045;-55
2021/12/15 01:41:23;;;;;;;2.53;2.08;;;10.40;83.50;;;;;;5155360;27;20038;-52
2021/12/15 01:46:59;;;;;;;2.55;2.13;;;10.40;83.50;;;;;;5155405;27;20115;-56
2021/12/15 01:49:30;;;;;;;2.47;1.85;;;10.40;83.50;;;;;;5155007;27;20089;-55
2021/12/15 01:51:59;;;;;;;2.40;2.20;;;10.40;83.50;;;;;;5154853;27;20086;-55
2021/12/15 01:54:27;;;;;;;2.30;2.03;;;10.40;83.50;;;;;;5155055;27;20053;-52
2021/12/15 01:56:54;;;;;;;2.50;1.95;;;10.40;83.50;;;;;;5154665;27;20043;-55
2021/12/15 01:59:23;;;;;;;2.53;2.03;;;10.40;83.50;;;;;;5155880;27;20081;-55
2021/12/15 02:01:49;;;;;;;2.53;2.17;;;10.40;83.50;;;;;;5154791;27;20081;-56
2021/12/15 02:04:19;;;;;;;3.17;2.15;;;10.40;83.50;;;;;;5169992;27;20453;-56
2021/12/15 02:06:46;;;;;;;2.28;2.00;;;10.40;83.50;;;;;;5175330;27;20102;-54
2021/12/15 02:09:18;;;;;;;2.13;1.92;;;10.40;83.50;;;;;;5162734;27;20050;-56
2021/12/15 02:11:44;;;;;;;2.97;2.33;;;10.50;83.60;;;;;;5139686;27;20098;-56
2021/12/15 02:14:11;;;;;;;2.30;2.00;;;10.40;84.10;;;;;;5169174;27;20390;-55
2021/12/15 02:16:37;;;;;;;3.03;2.05;;;10.40;83.50;;;;;;5154276;27;20054;-55
2021/12/15 02:19:03;;;;;;;2.78;1.90;;;10.40;83.50;;;;;;5156803;27;20123;-55
2021/12/15 02:21:29;;;;;;;2.60;2.28;;;10.40;83.40;;;;;;5172696;27;20038;-56
2021/12/15 02:23:58;;;;;;;2.72;2.30;;;10.40;83.50;;;;;;5175307;27;20046;-56
2021/12/15 02:26:28;;;;;;;2.33;1.80;;;10.40;83.50;;;;;;5174890;27;20053;-56
2021/12/15 02:28:57;;;;;;;2.55;2.33;;;10.40;83.40;;;;;;5175271;27;20034;-55
2021/12/15 02:39:15;;;;;;;2.97;2.03;;;10.40;83.40;;;;;;5153994;27;20046;-56
2021/12/15 02:41:41;;;;;;;2.33;1.70;;;10.40;83.50;;;;;;5155169;27;20047;-56
2021/12/15 02:44:12;;;;;;;2.15;1.83;;;10.40;83.40;;;;;;5154886;27;20045;-56
2021/12/15 02:46:39;;;;;;;2.70;1.98;;;10.40;83.40;;;;;;5153869;27;20122;-56
2021/12/15 02:49:08;;;;;;;2.10;1.83;;;10.40;83.40;;;;;;5153724;27;20030;-56
2021/12/15 02:51:36;;;;;;;2.10;1.90;;;10.50;83.50;;;;;;5154556;27;20043;-56
2021/12/15 02:54:03;;;;;;;2.17;1.80;;;10.40;83.50;;;;;;5153664;27;20054;-57
2021/12/15 02:56:29;;;;;;;2.08;1.60;;;10.50;83.50;;;;;;5134954;27;20039;-56
2021/12/15 02:59:01;;;;;;;2.55;1.83;;;10.40;83.40;;;;;;5135341;27;20111;-55
2021/12/15 03:01:37;;;;;;;2.35;1.90;;;10.40;83.40;;;;;;5154645;27;20042;-56
2021/12/15 03:04:15;;;;;;;2.15;1.73;;;10.40;83.40;;;;;;5153691;27;20061;-57
2021/12/15 03:06:52;;;;;;;2.47;1.88;;;10.40;83.40;;;;;;5153568;27;20045;-57
2021/12/15 03:17:32;;;;;;;2.28;2.08;;;10.40;83.40;;;;;;5134742;27;20061;-55
2021/12/15 03:19:58;;;;;;;3.03;2.13;;;10.40;83.40;;;;;;5153592;27;20043;-55
2021/12/15 03:22:24;;;;;;;2.38;1.98;;;10.50;83.50;;;;;;5154625;27;20042;-54
2021/12/15 03:24:50;;;;;;;2.17;1.73;;;10.40;83.40;;;;;;5153167;27;20043;-55
2021/12/15 03:27:21;;;;;;;2.97;1.80;;;10.50;83.40;;;;;;5153552;27;20504;-54
2021/12/15 03:35:23;;;;;;;2.63;2.10;;;10.50;83.40;;;;;;5134473;27;20044;-56
2021/12/15 03:37:55;;;;;;;2.03;1.70;;;10.40;83.40;;;;;;5154724;27;20045;-55
2021/12/15 03:40:33;;;;;;;1.73;1.63;;;10.40;83.40;;;;;;5173877;27;20053;-55
2021/12/15 03:43:02;;;;;;;2.53;1.75;;;10.50;83.40;;;;;;5174551;27;20042;-55
2021/12/15 03:45:33;;;;;;;2.83;1.92;;;10.50;83.40;;;;;;5172340;27;20045;-55
2021/12/15 03:48:06;;;;;;;2.38;1.80;;;10.50;83.40;;;;;;5173702;27;20041;-54
2021/12/15 03:50:33;;;;;;;2.53;1.80;;;10.50;83.40;;;;;;5174046;27;20477;-55
2021/12/15 03:52:59;;;;;;;2.47;1.77;;;10.50;83.40;;;;;;5173694;27;20507;-54
2021/12/15 03:55:32;;;;;;;1.85;1.63;;;10.50;83.40;;;;;;5152843;27;20133;-55
2021/12/15 03:58:00;;;;;;;1.95;1.73;;;10.50;83.40;;;;;;5174348;27;20047;-55
2021/12/15 04:00:29;;;;;;;2.20;1.80;;;10.50;83.40;;;;;;5173687;27;20042;-55
2021/12/15 04:02:57;;;;;;;2.08;1.60;;;10.40;83.40;;;;;;5172486;27;20440;-55
2021/12/15 04:05:23;;;;;;;2.15;1.83;;;10.40;83.30;;;;;;5171509;27;20057;-52
2021/12/15 04:07:50;;;;;;;2.50;1.85;;;10.50;83.40;;;;;;5156373;27;20053;-55
2021/12/15 04:10:22;;;;;;;2.30;1.90;;;10.50;83.40;;;;;;5177519;27;20074;-56
2021/12/15 04:12:48;;;;;;;2.20;2.00;;;10.50;83.40;;;;;;5177276;27;20066;-56
2021/12/15 04:17:51;;;;;;;2.55;2.10;;;10.50;83.40;;;;;;5177637;27;20508;-56
2021/12/15 04:20:21;;;;;;;2.42;1.90;;;10.50;83.40;;;;;;5177119;27;20077;-56
2021/12/15 04:22:47;;;;;;;2.65;2.05;;;10.50;83.40;;;;;;5177575;27;20122;-56
2021/12/15 04:25:20;;;;;;;2.28;1.85;;;10.50;83.40;;;;;;5177325;27;20133;-57
2021/12/15 04:27:57;;;;;;;2.03;1.80;;;10.50;83.40;;;;;;5175055;27;20049;-56
2021/12/15 04:30:24;;;;;;;2.55;1.58;;;10.50;83.40;;;;;;5177310;27;20061;-55
2021/12/15 04:32:52;;;;;;;2.13;1.90;;;10.50;83.30;;;;;;5157881;27;20046;-56
2021/12/15 04:35:19;;;;;;;1.90;1.75;;;10.50;83.30;;;;;;5156476;27;20320;-55
2021/12/15 04:37:46;;;;;;;1.63;1.48;;;10.50;83.40;;;;;;5138882;27;20119;-56
2021/12/15 04:40:13;;;;;;;2.03;1.70;;;10.40;83.30;;;;;;5156495;27;20056;-55
2021/12/15 04:42:40;;;;;;;2.00;1.80;;;10.50;83.30;;;;;;5155701;27;20074;-54
2021/12/15 04:45:08;;;;;;;1.98;1.70;;;10.50;83.40;;;;;;5156304;27;20035;-56
2021/12/15 04:47:34;;;;;;;2.67;1.90;;;10.50;83.30;;;;;;5157481;27;20130;-55
2021/12/15 04:50:00;;;;;;;2.33;1.83;;;10.50;83.30;;;;;;5137348;27;20126;-56
2021/12/15 04:52:28;;;;;;;1.63;1.50;;;10.50;83.30;;;;;;5156115;27;20477;-57
2021/12/15 04:54:55;;;;;;;2.00;1.42;;;10.50;83.30;;;;;;5155852;27;20043;-56
2021/12/15 04:57:22;;;;;;;3.05;1.95;;;10.50;83.30;;;;;;5155722;27;20062;-56
2021/12/15 04:59:49;;;;;;;2.70;1.67;;;10.60;83.40;;;;;;5156381;27;20035;-56
2021/12/15 05:02:17;;;;;;;2.45;1.80;;;10.50;83.30;;;;;;5156186;27;20042;-55
2021/12/15 05:04:43;;;;;;;1.90;1.75;;;10.50;83.30;;;;;;5157158;27;20118;-55
2021/12/15 05:07:09;;;;;;;1.85;1.63;;;10.50;83.30;;;;;;5156198;27;20325;-55
2021/12/15 05:09:35;;;;;;;2.28;1.85;;;10.50;83.30;;;;;;5120738;27;20077;-55
2021/12/15 05:12:01;;;;;;;2.28;1.73;;;10.50;83.30;;;;;;5155757;27;20369;-56
2021/12/15 05:14:27;;;;;;;1.92;1.73;;;10.50;83.30;;;;;;5155264;27;20049;-56
2021/12/15 05:16:53;;;;;;;1.80;1.50;;;10.50;83.30;;;;;;5155800;27;20117;-55
2021/12/15 05:19:20;;;;;;;3.30;1.80;;;10.50;83.30;;;;;;5164082;27;20113;-54
2021/12/15 05:21:48;;;;;;;2.40;1.73;;;10.50;83.30;;;;;;5157512;27;20050;-54
2021/12/15 05:24:30;;;;;;;2.05;1.85;;;10.50;83.30;;;;;;5157739;27;20075;-54
2021/12/15 05:26:57;;;;;;;2.10;1.80;;;10.50;83.30;;;;;;5157400;27;20042;-55
2021/12/15 05:29:23;;;;;;;2.53;2.03;;;10.60;83.30;;;;;;5174577;27;20415;-52
2021/12/15 05:31:48;;;;;;;1.77;1.52;;;10.50;83.30;;;;;;5170892;27;20039;-53
2021/12/15 05:34:14;;;;;;;2.85;1.95;;;10.50;83.30;;;;;;5156087;27;20045;-55
2021/12/15 05:36:40;;;;;;;2.20;1.67;;;10.50;83.30;;;;;;5155584;27;20042;-50
2021/12/15 05:39:07;;;;;;;2.10;1.80;;;10.50;83.30;;;;;;5155502;27;20081;-56
2021/12/15 05:41:34;;;;;;;2.10;1.90;;;10.50;83.30;;;;;;5156459;27;20042;-52
2021/12/15 05:44:04;;;;;;;2.08;1.73;;;10.50;83.30;;;;;;5155406;27;20073;-52
2021/12/15 05:46:31;;;;;;;2.55;1.90;;;10.50;83.30;;;;;;5166333;27;20077;-55
2021/12/15 05:48:57;;;;;;;2.45;1.77;;;10.50;83.30;;;;;;5175723;27;20035;-55
2021/12/15 05:51:23;;;;;;;2.38;1.77;;;10.50;83.30;;;;;;5174475;27;20039;-54
2021/12/15 05:53:50;;;;;;;2.08;1.65;;;10.50;83.30;;;;;;5175972;27;20063;-56
2021/12/15 05:56:16;;;;;;;2.00;1.80;;;10.50;83.30;;;;;;5167815;27;20089;-55
2021/12/15 05:58:42;;;;;;;1.70;1.60;;;10.60;83.30;;;;;;5154787;27;20106;-54
2021/12/15 06:01:07;;;;;;;2.05;1.70;;;10.50;83.30;;;;;;5159364;27;20042;-55
2021/12/15 06:03:33;;;;;;;2.33;2.13;;;10.50;83.30;;;;;;5154439;27;20057;-54
2021/12/15 06:05:59;;;;;;;2.00;1.80;;;10.50;83.30;;;;;;5155770;27;20469;-55
2021/12/15 06:08:26;;;;;;;2.10;1.70;;;10.50;83.30;;;;;;5154917;27;20062;-55
2021/12/15 06:10:52;;;;;;;2.42;1.90;;;10.50;83.30;;;;;;5154614;27;20034;-56
2021/12/15 06:13:18;;;;;;;2.30;1.83;;;10.60;83.30;;;;;;5155561;27;20038;-56
2021/12/15 06:15:45;;;;;;;2.03;1.63;;;10.60;83.30;;;;;;5154667;27;20125;-55
2021/12/15 06:18:14;;;;;;;3.05;1.75;;;10.60;83.30;;;;;;5167889;27;20035;-54
2021/12/15 06:20:41;;;;;;;2.15;1.90;;;10.50;83.30;;;;;;5173569;27;20054;-56
2021/12/15 06:23:16;;;;;;;2.80;2.08;;;10.50;83.30;;;;;;5173566;27;20034;-55
2021/12/15 06:25:42;;;;;;;2.17;1.70;;;10.50;83.30;;;;;;5175511;27;20046;-56
2021/12/15 06:28:08;;;;;;;2.03;1.83;;;10.60;83.30;;;;;;5174907;27;20590;-53
2021/12/15 06:30:36;;;;;;;2.05;1.80;;;10.50;83.30;;;;;;5174702;27;20034;-56
2021/12/15 06:33:02;;;;;;;2.33;1.90;;;10.50;83.30;;;;;;5168017;27;20046;-56
2021/12/15 06:35:28;;;;;;;2.72;2.03;;;10.50;83.20;;;;;;5153474;27;20078;-56
2021/12/15 06:37:54;;;;;;;2.47;1.80;;;10.50;83.20;;;;;;5154392;27;20058;-55
2021/12/15 06:40:20;;;;;;;2.20;1.73;;;10.40;83.20;;;;;;5153939;27;20039;-55
2021/12/15 06:42:45;;;;;;;2.70;1.85;;;10.60;83.30;;;;;;5154279;27;20039;-55
2021/12/15 06:45:16;;;;;;;3.47;1.77;;;10.50;83.30;;;;;;5155185;27;20046;-55
2021/12/15 06:58:39;;;;;;;2.75;1.77;;;10.50;83.30;;;;;;5174622;27;20568;-55
2021/12/15 07:01:05;;;;;;;2.15;1.73;;;10.60;83.30;;;;;;5174268;27;20126;-53
2021/12/15 07:03:31;;;;;;;1.90;1.70;;;10.60;83.30;;;;;;5174413;27;20489;-51
2021/12/15 07:05:57;;;;;;;1.90;1.70;;;10.60;83.30;;;;;;5172504;27;20045;-56
2021/12/15 07:08:24;;;;;;;2.88;2.15;;;10.60;83.30;;;;;;5174018;27;20083;-55
2021/12/15 07:10:51;;;;;;;1.98;1.77;;;10.60;83.30;;;;;;5174244;27;20046;-53
2021/12/15 07:13:18;;;;;;;2.95;1.75;;;10.60;83.30;;;;;;5174550;27;20045;-55
2021/12/15 07:15:46;;;;;;;1.45;1.35;;;10.60;83.30;;;;;;5172521;27;20034;-56
2021/12/15 07:18:14;;;;;;;2.10;1.60;;;10.60;83.30;;;;;;5172767;27;20182;-53
2021/12/15 07:20:51;;;;;;;2.60;1.80;;;10.60;83.30;;;;;;5174514;27;20042;-54
2021/12/15 07:23:20;;;;;;;2.20;1.90;;;10.60;83.30;;;;;;5173836;27;20034;-55
2021/12/15 07:25:49;;;;;;;2.88;1.70;;;10.60;83.30;;;;;;5173155;27;20046;-52
2021/12/15 07:28:17;;;;;;;2.03;1.75;;;10.60;83.30;;;;;;5153764;27;20528;-53
2021/12/15 07:30:43;;;;;;;2.25;1.95;;;10.60;83.30;;;;;;5153736;27;20418;-53
2021/12/15 07:33:10;;;;;;;2.42;1.80;;;10.60;83.30;;;;;;5153559;27;20398;-54
2021/12/15 07:35:37;;;;;;;2.15;1.70;;;10.60;83.30;;;;;;5153376;27;20038;-53
2021/12/15 07:38:03;;;;;;;2.70;2.28;;;10.60;83.30;;;;;;5154650;27;20042;-50
2021/12/15 07:40:29;;;;;;;3.03;2.13;;;10.60;83.30;;;;;;5160183;27;20126;-54
2021/12/15 07:45:29;;;;;;;2.00;1.70;;;10.60;83.30;;;;;;5173456;27;20061;-53
2021/12/15 07:47:57;;;;;;;2.65;2.10;;;10.60;83.30;;;;;;5157775;27;20046;-53
2021/12/15 07:50:25;;;;;;;2.30;1.88;;;10.60;83.30;;;;;;5156932;27;20046;-53
2021/12/15 07:52:51;;;;;;;2.00;1.80;;;10.60;83.30;;;;;;5156611;27;20486;-55
2021/12/15 07:55:17;;;;;;;4.32;1.80;;;10.60;83.30;;;;;;5157039;27;20167;-52
2021/12/15 07:57:44;;;;;;;2.42;1.85;;;10.50;83.20;;;;;;5163139;27;20049;-55
2021/12/15 08:00:11;;;;;;;2.25;2.05;;;10.60;83.30;;;;;;5178116;27;20430;-56
2021/12/15 08:02:37;;;;;;;2.50;1.80;;;10.60;83.30;;;;;;5160263;27;20451;-56
2021/12/15 08:05:04;;;;;;;1.95;1.75;;;10.60;83.30;;;;;;5157324;27;20043;-52
2021/12/15 08:07:30;;;;;;;3.10;1.95;;;10.60;83.30;;;;;;5157059;27;20153;-54
2021/12/15 08:09:56;;;;;;;2.58;1.83;;;10.60;83.30;;;;;;5158269;27;20027;-54
2021/12/15 08:12:22;;;;;;;3.05;2.55;;;10.60;83.30;;;;;;5156922;27;20053;-56
2021/12/15 08:14:47;;;;;;;7.50;4.70;;;10.60;83.50;;;;;;5157375;27;20450;-56
2021/12/15 08:17:14;;;;;;;17.42;9.40;;;10.60;83.70;;;;;;5157136;27;20039;-59
2021/12/15 08:19:41;;;;;;;6.40;4.60;;;10.60;84.40;;;;;;5138033;27;20057;-57
2021/12/15 08:22:06;;;;;;;8.48;4.70;;;10.60;84.20;;;;;;5139510;27;20095;-58
2021/12/15 08:24:33;;;;;;;8.15;4.88;;;10.60;84.00;;;;;;5157225;27;20038;-60
2021/12/15 08:26:59;;;;;;;11.48;5.03;;;10.60;83.90;;;;;;5156375;27;20046;-59
2021/12/15 08:29:25;;;;;;;7.82;5.47;;;10.70;83.90;;;;;;5137876;27;20372;-59
2021/12/15 08:31:50;;;;;;;7.32;5.65;;;10.60;83.80;;;;;;5158078;27;20054;-59
2021/12/15 08:34:16;;;;;;;9.70;5.30;;;10.60;83.70;;;;;;5156650;27;20430;-59
2021/12/15 08:36:43;;;;;;;11.75;5.68;;;10.70;83.70;;;;;;5156865;27;20126;-60
2021/12/15 08:39:10;;;;;;;10.60;5.88;;;10.60;83.60;;;;;;5137890;27;20121;-60
2021/12/15 08:41:36;;;;;;;9.80;5.57;;;10.60;83.60;;;;;;5157378;27;20082;-61
2021/12/15 08:44:06;;;;;;;10.02;5.88;;;10.60;83.60;;;;;;5156230;27;20096;-61
2021/12/15 08:46:38;;;;;;;8.85;5.95;;;10.60;83.50;;;;;;5156329;27;20111;-60
2021/12/15 08:49:06;;;;;;;7.88;5.40;;;10.60;83.50;;;;;;5156942;27;20047;-59
2021/12/15 08:51:32;;;;;;;11.35;5.85;;;10.60;83.50;;;;;;5156448;27;20077;-61
2021/12/15 08:54:04;;;;;;;7.85;5.63;;;10.70;83.60;;;;;;5157026;27;20054;-60
2021/12/15 08:56:30;;;;;;;6.75;5.43;;;10.70;83.50;;;;;;5156307;27;20107;-60
2021/12/15 08:58:57;;;;;;;8.63;5.40;;;10.70;83.50;;;;;;5155934;27;20042;-60
2021/12/15 09:01:23;;;;;;;7.07;4.78;;;10.60;83.40;;;;;;5156267;27;20042;-60
2021/12/15 09:03:49;;;;;;;8.85;5.65;;;10.60;83.40;;;;;;5157338;27;20367;-57
2021/12/15 09:06:15;;;;;;;9.68;6.38;;;10.60;83.80;;;;;;5156171;27;20078;-58
2021/12/15 09:08:42;;;;;;;8.95;5.55;;;10.60;83.60;;;;;;5120085;27;20194;-58
2021/12/15 09:11:10;;;;;;;8.05;5.90;;;10.60;83.60;;;;;;5156020;27;20062;-58
2021/12/15 09:13:37;;;;;;;7.97;6.18;;;10.70;83.70;;;;;;5156749;27;20121;-58
2021/12/15 09:16:08;;;;;;;9.15;6.40;;;10.70;84.30;;;;;;5155965;27;20046;-57
2021/12/15 09:18:36;;;;;;;9.65;6.10;;;10.70;83.70;;;;;;5155810;27;20371;-58
2021/12/15 09:21:02;;;;;;;9.02;6.07;;;10.70;83.70;;;;;;5120012;27;20061;-58
2021/12/15 09:23:28;;;;;;;7.43;5.47;;;10.70;83.80;;;;;;5136553;27;20466;-58
2021/12/15 09:25:54;;;;;;;7.18;5.82;;;10.70;83.70;;;;;;5137616;27;20050;-58
2021/12/15 09:28:20;;;;;;;8.15;5.68;;;10.70;83.80;;;;;;5137148;27;20030;-58
2021/12/15 09:30:48;;;;;;;10.27;5.65;;;10.70;83.80;;;;;;5155054;27;20046;-58
2021/12/15 09:33:18;;;;;;;10.35;5.97;;;10.70;83.90;;;;;;5136814;27;20043;-58
2021/12/15 09:35:44;;;;;;;9.20;5.53;;;10.70;83.90;;;;;;5156367;27;20050;-58
2021/12/15 09:38:12;;;;;;;10.88;5.93;;;10.70;83.90;;;;;;5155303;27;20076;-58
2021/12/15 09:40:40;;;;;;;6.95;5.13;;;10.70;84.20;;;;;;5136545;27;20057;-57
2021/12/15 09:43:06;;;;;;;7.88;5.55;;;10.70;83.90;;;;;;5155330;27;20402;-58
2021/12/15 09:45:49;;;;;;;8.38;5.80;;;10.70;83.90;;;;;;5136978;27;20081;-58
2021/12/15 10:04:40;;;;;;;8.15;4.93;;;10.70;84.10;;;;;;5154890;27;20091;-58
2021/12/15 10:18:10;;;;;;;7.05;4.90;;;10.70;84.20;;;;;;5155205;27;20125;-58
2021/12/15 10:20:38;;;;;;;7.80;5.07;;;10.70;84.10;;;;;;5135738;27;20506;-58
2021/12/15 10:23:13;;;;;;;7.75;5.15;;;10.60;84.00;;;;;;5154604;27;20043;-58
2021/12/15 10:25:49;;;;;;;5.40;3.92;;;10.70;84.10;;;;;;5154572;27;20047;-58
2021/12/15 10:28:16;;;;;;;6.15;4.40;;;10.70;84.10;;;;;;5136848;27;20043;-56
2021/12/15 10:30:47;;;;;;;6.50;4.50;;;10.70;84.10;;;;;;5154272;27;20107;-58
2021/12/15 10:33:15;;;;;;;5.90;4.53;;;10.70;84.10;;;;;;5154187;27;20095;-58
2021/12/15 10:35:48;;;;;;;6.97;4.45;;;10.70;84.00;;;;;;5154240;27;20121;-58
2021/12/15 10:38:27;;;;;;;4.82;4.03;;;10.70;84.00;;;;;;5151956;27;20121;-57
2021/12/15 10:40:58;;;;;;;5.78;4.35;;;10.70;84.00;;;;;;5150591;27;20065;-58
2021/12/15 10:43:32;;;;;;;5.65;4.40;;;10.70;84.00;;;;;;5150434;27;20042;-58
2021/12/15 10:46:03;;;;;;;5.68;4.28;;;10.70;84.00;;;;;;5132576;27;20103;-58
2021/12/15 10:48:37;;;;;;;5.55;4.10;;;10.70;83.90;;;;;;5155491;27;20042;-57
2021/12/15 10:51:21;;;;;;;5.35;4.18;;;10.70;84.00;;;;;;5152858;27;20117;-56
2021/12/15 10:53:50;;;;;;;6.32;4.47;;;10.70;83.80;;;;;;5156985;27;20064;-56
2021/12/15 10:56:21;;;;;;;6.13;4.40;;;10.70;83.80;;;;;;5153483;27;20521;-57
2021/12/15 10:58:50;;;;;;;4.65;3.78;;;10.80;83.90;;;;;;5134837;27;20091;-57
2021/12/15 11:01:43;;;;;;;5.75;3.92;;;10.70;83.80;;;;;;5135381;27;20521;-56
2021/12/15 11:04:30;;;;;;;5.35;3.88;;;10.70;83.80;;;;;;5153884;27;20049;-56
2021/12/15 11:07:19;;;;;;;5.13;4.18;;;10.70;83.70;;;;;;5134492;27;20115;-56
2021/12/15 11:09:57;;;;;;;4.97;3.85;;;10.70;83.70;;;;;;5154960;27;20046;-56
2021/12/15 11:12:40;;;;;;;4.35;3.38;;;10.70;83.70;;;;;;5152933;27;20087;-57
2021/12/15 11:15:17;;;;;;;5.82;3.53;;;10.70;83.70;;;;;;5153086;27;20053;-58
2021/12/15 11:17:48;;;;;;;5.63;4.30;;;10.70;83.70;;;;;;5133895;27;20091;-58
2021/12/15 11:20:24;;;;;;;4.50;3.58;;;10.70;83.70;;;;;;5131949;27;20179;-57
2021/12/15 11:22:51;;;;;;;;;;;10.70;83.70;;;;;;5150127;27;20074;-57
2021/12/15 11:25:43;;;;;;;5.60;3.97;;;10.70;83.70;;;;;;5131120;27;19946;-57
2021/12/15 11:28:12;;;;;;;5.57;3.45;;;10.70;83.70;;;;;;5165098;27;20046;-58
2021/12/15 11:30:43;;;;;;;4.82;3.20;;;10.70;83.70;;;;;;5170554;27;20061;-57
2021/12/15 11:33:17;;;;;;;3.70;3.30;;;10.70;83.60;;;;;;5170746;27;20058;-57
2021/12/15 11:36:08;;;;;;;4.97;4.00;;;10.70;83.60;;;;;;5170941;27;20365;-56
2021/12/15 11:38:41;;;;;;;5.03;3.30;;;10.70;83.50;;;;;;5170402;27;20148;-58
2021/12/15 11:41:14;;;;;;;4.60;3.55;;;10.70;83.60;;;;;;5170764;27;20906;-57
2021/12/15 11:43:50;;;;;;;3.58;2.95;;;10.70;83.50;;;;;;5150670;27;20494;-58
2021/12/15 11:46:29;;;;;;;4.72;3.20;;;10.70;83.50;;;;;;5171097;27;20090;-57
2021/12/15 11:49:03;;;;;;;3.95;3.17;;;10.80;83.50;;;;;;5170361;27;20052;-57
2021/12/15 11:51:41;;;;;;;4.80;3.28;;;10.70;83.50;;;;;;5171157;27;20053;-57
2021/12/15 11:54:18;;;;;;;4.70;3.40;;;10.70;83.40;;;;;;5168582;27;20565;-57
2021/12/15 11:56:45;;;;;;;3.83;3.08;;;10.80;83.50;;;;;;5170681;27;20049;-57
2021/12/15 11:59:26;;;;;;;3.75;3.20;;;10.70;83.40;;;;;;5170242;27;20497;-58
2021/12/15 12:01:55;;;;;;;4.80;3.47;;;10.70;83.40;;;;;;5168815;27;20058;-57
2021/12/15 12:04:29;;;;;;;4.75;3.47;;;10.80;83.40;;;;;;5143789;27;20050;-57
2021/12/15 12:07:13;;;;;;;4.68;3.60;;;10.70;83.40;;;;;;5161917;27;20043;-57
2021/12/15 12:09:42;;;;;;;4.10;3.20;;;10.80;83.40;;;;;;5157784;27;20079;-58
2021/12/15 12:12:08;;;;;;;3.95;2.97;;;10.70;83.30;;;;;;5171442;27;20125;-58
2021/12/15 12:14:39;;;;;;;4.50;3.15;;;10.70;83.30;;;;;;5152627;27;20121;-58
2021/12/15 12:17:13;;;;;;;3.60;2.70;;;10.80;83.40;;;;;;5133911;27;20078;-57
2021/12/15 12:20:00;;;;;;;3.58;3.05;;;10.80;83.40;;;;;;5152664;27;20061;-58
2021/12/15 12:22:30;;;;;;;3.63;2.92;;;10.70;83.30;;;;;;5151675;27;20047;-58
2021/12/15 12:24:59;;;;;;;4.30;3.25;;;10.80;83.30;;;;;;5152840;27;20482;-57
2021/12/15 12:27:30;;;;;;;3.25;2.80;;;10.70;83.30;;;;;;5116490;27;20086;-58
2021/12/15 12:29:57;;;;;;;3.90;2.97;;;10.70;83.20;;;;;;5155421;27;20435;-58
2021/12/15 12:32:23;;;;;;;3.63;3.15;;;10.80;83.30;;;;;;5156266;27;20398;-59
2021/12/15 12:34:50;;;;;;;4.47;3.17;;;10.80;83.30;;;;;;5157293;27;20039;-58
2021/12/15 12:37:17;;;;;;;3.05;2.55;;;10.80;83.20;;;;;;5156165;27;20050;-59
2021/12/15 12:39:45;;;;;;;3.58;3.10;;;10.80;83.20;;;;;;5156030;27;20510;-59
2021/12/15 12:42:31;;;;;;;5.10;3.10;;;10.80;83.20;;;;;;5138307;27;20082;-58
2021/12/15 12:45:19;;;;;;;3.78;2.80;;;10.80;83.20;;;;;;5156062;27;20043;-59
2021/12/15 12:48:14;;;;;;;4.45;2.80;;;10.80;83.10;;;;;;5137447;27;20062;-58
2021/12/15 12:59:48;;;;;;;3.38;2.38;;;10.80;83.20;;;;;;5172841;27;20405;-58
2021/12/15 13:02:42;;;;;;;3.17;2.40;;;10.70;83.10;;;;;;5160988;27;20121;-58
2021/12/15 13:05:29;;;;;;;2.85;2.30;;;10.80;83.20;;;;;;5156254;27;20379;-59
2021/12/15 13:07:58;;;;;;;3.47;2.60;;;10.80;83.20;;;;;;5164399;27;20034;-58
2021/12/15 13:10:51;;;;;;;3.75;2.50;;;10.80;83.20;;;;;;5165484;27;20477;-58
2021/12/15 13:13:22;;;;;;;4.70;2.72;;;10.80;83.10;;;;;;5158384;27;20030;-57
2021/12/15 13:15:53;;;;;;;3.42;2.58;;;10.80;83.20;;;;;;5155339;27;20350;-57
2021/12/15 13:18:19;;;;;;;2.83;2.45;;;10.80;83.10;;;;;;5155476;27;20039;-57
2021/12/15 13:20:54;;;;;;;2.60;2.10;;;10.80;83.10;;;;;;5174985;27;20049;-58
2021/12/15 13:23:58;;;;;;;2.63;2.42;;;10.80;83.70;;;;;;5161367;27;20043;-57
2021/12/15 13:29:47;;;;;;;2.47;2.28;;;10.80;83.10;;;;;;5165803;27;20054;-58
2021/12/15 13:32:13;;;;;;;3.22;2.38;;;10.80;83.10;;;;;;5164602;27;20038;-57
2021/12/15 13:34:48;;;;;;;3.65;2.53;;;10.80;83.10;;;;;;5163056;27;20042;-59
2021/12/15 13:37:51;;;;;;;2.35;2.15;;;10.90;83.20;;;;;;5141503;27;20038;-58
2021/12/15 13:41:06;;;;;;;3.20;2.50;;;10.90;83.10;;;;;;5163513;27;20091;-59
2021/12/15 13:43:58;;;;;;;3.20;2.30;;;10.90;83.10;;;;;;5069553;28;20045;-58
2021/12/15 13:46:29;;;;;;;2.92;2.20;;;10.80;83.10;;;;;;5068493;28;20409;-58
2021/12/15 13:49:07;;;;;;;2.55;2.05;;;10.80;83.10;;;;;;5067764;28;20048;-59
2021/12/15 13:51:56;;;;;;;2.25;1.92;;;10.80;83.10;;;;;;5050849;28;20400;-59
2021/12/15 13:54:34;;;;;;;2.45;2.00;;;10.90;83.10;;;;;;5067907;28;20076;-58
2021/12/15 13:57:02;;;;;;;2.97;2.10;;;10.80;83.10;;;;;;5068033;28;20056;-58
2021/12/15 13:59:32;;;;;;;3.03;2.03;;;10.80;83.10;;;;;;5069644;28;20076;-57
2021/12/15 14:02:14;;;;;;;2.83;2.03;;;10.90;83.20;;;;;;5068875;28;20585;-58
2021/12/15 14:04:52;;;;;;;2.40;2.10;;;10.80;83.10;;;;;;5067681;28;20040;-58
2021/12/15 14:07:32;;;;;;;3.22;2.17;;;10.90;83.10;;;;;;5067334;28;20155;-56
2021/12/15 14:10:12;;;;;;;2.42;2.17;;;10.80;83.00;;;;;;5067614;28;20052;-57
2021/12/15 14:12:49;;;;;;;3.22;2.47;;;10.80;83.10;;;;;;5067271;28;20538;-57
2021/12/15 14:15:35;;;;;;;2.35;1.77;;;10.90;83.10;;;;;;5066752;28;20485;-57
2021/12/15 14:18:30;;;;;;;2.90;2.33;;;10.80;83.00;;;;;;5064351;28;20457;-59
2021/12/15 14:20:59;;;;;;;2.65;2.30;;;10.90;83.10;;;;;;5142837;27;20078;-56
2021/12/15 14:23:29;;;;;;;2.55;2.03;;;10.80;83.10;;;;;;5164532;27;20375;-59
2021/12/15 14:25:56;;;;;;;2.20;2.00;;;10.70;83.00;;;;;;5163208;27;20043;-59
2021/12/15 14:28:31;;;;;;;2.10;1.90;;;10.90;83.10;;;;;;5161513;27;20420;-59
2021/12/15 14:31:08;;;;;;;2.72;2.17;;;10.80;83.10;;;;;;5167116;27;20043;-57
2021/12/15 14:33:38;;;;;;;1.55;1.33;;;10.80;83.10;;;;;;5161397;27;20082;-57